Time;durP1;ratioP1;P1;durP2;ratioP2;P2;SDS_P1;SDS_P2;PMS_P1;PMS_P2;Temp;Humidity;BMP_temperature;BMP_pressure;BME280_temperature;BME280_humidity;BME280_pressure;Samples;Min_cycle;Max_cycle;Signal;HPM_P1;HPM_P2
2024/01/11 00:01:23;;;;;;;52.17;20.58;;;-3.00;99.90;;;;;;5060828;28;20044;-71
2024/01/11 00:03:49;;;;;;;53.17;20.73;;;-3.10;99.90;;;;;;5060855;28;20029;-72
2024/01/11 00:06:15;;;;;;;49.45;21.48;;;-3.20;99.90;;;;;;5061189;28;20009;-72
2024/01/11 00:08:40;;;;;;;48.60;22.30;;;-3.30;99.90;;;;;;5043054;28;20110;-71
2024/01/11 00:11:06;;;;;;;45.70;18.77;;;-3.40;99.90;;;;;;5042371;28;20024;-73
2024/01/11 00:13:31;;;;;;;47.05;19.45;;;-3.20;99.90;;;;;;5059900;28;20037;-72
2024/01/11 00:15:57;;;;;;;50.35;19.75;;;-3.20;99.90;;;;;;5060573;28;20054;-73
2024/01/11 00:18:23;;;;;;;44.55;19.83;;;-3.30;99.90;;;;;;5060696;28;20309;-73
2024/01/11 00:20:48;;;;;;;51.05;19.98;;;-3.20;99.90;;;;;;5018579;28;1158187;-73
2024/01/11 00:23:14;;;;;;;43.17;19.77;;;-3.30;99.90;;;;;;5061281;28;20071;-73
2024/01/11 00:25:39;;;;;;;49.17;21.52;;;-3.40;99.90;;;;;;5061301;28;20032;-72
2024/01/11 00:28:05;;;;;;;48.95;20.45;;;-3.40;99.90;;;;;;5060996;28;20206;-73
2024/01/11 00:30:31;;;;;;;49.90;20.17;;;-3.40;99.90;;;;;;5061699;28;20116;-72
2024/01/11 00:32:56;;;;;;;52.50;20.60;;;-3.40;99.90;;;;;;5060906;28;20033;-72
2024/01/11 00:35:22;;;;;;;46.72;20.10;;;-3.40;99.90;;;;;;5062369;28;20027;-70
2024/01/11 00:37:48;;;;;;;50.40;20.33;;;-3.40;99.90;;;;;;5061707;28;20098;-70
2024/01/11 00:40:13;;;;;;;60.08;21.40;;;-3.30;99.90;;;;;;5060757;28;20074;-73
2024/01/11 00:42:39;;;;;;;50.13;21.48;;;-3.20;99.90;;;;;;5060027;28;20061;-73
2024/01/11 00:45:05;;;;;;;48.97;20.73;;;-3.20;99.90;;;;;;5059165;28;20032;-72
2024/01/11 00:47:30;;;;;;;54.45;19.63;;;-3.20;99.90;;;;;;5061202;28;20028;-73
2024/01/11 00:49:56;;;;;;;47.10;19.02;;;-3.20;99.90;;;;;;5042842;28;20062;-73
2024/01/11 00:52:22;;;;;;;45.40;19.02;;;-3.20;99.90;;;;;;5043407;28;20021;-74
2024/01/11 00:54:47;;;;;;;41.67;17.42;;;-3.20;99.90;;;;;;5061590;28;20321;-72
2024/01/11 00:57:13;;;;;;;44.45;18.40;;;-2.80;99.90;;;;;;5060788;28;20044;-71
2024/01/11 00:59:40;;;;;;;50.13;20.48;;;-3.30;99.90;;;;;;5061053;28;20031;-72
2024/01/11 01:02:06;;;;;;;43.90;18.27;;;-3.30;99.90;;;;;;5060646;28;20037;-71
2024/01/11 01:04:32;;;;;;;48.47;19.10;;;-3.40;99.90;;;;;;5042445;28;20025;-72
2024/01/11 01:06:57;;;;;;;49.85;16.17;;;-3.50;99.90;;;;;;5060805;28;20025;-71
2024/01/11 01:09:23;;;;;;;51.65;21.23;;;-3.60;99.90;;;;;;5060441;28;20036;-72
2024/01/11 01:11:49;;;;;;;53.38;21.10;;;-3.60;99.90;;;;;;5060509;28;20025;-72
2024/01/11 01:14:14;;;;;;;49.38;19.88;;;-3.50;99.90;;;;;;5060259;28;20029;-73
2024/01/11 01:16:40;;;;;;;46.13;19.35;;;-3.50;99.90;;;;;;5061290;28;20029;-70
2024/01/11 01:19:05;;;;;;;44.53;20.88;;;-3.40;99.90;;;;;;5061993;28;20051;-72
2024/01/11 01:21:31;;;;;;;46.83;16.15;;;-3.30;99.90;;;;;;5061417;28;20098;-72
2024/01/11 01:23:57;;;;;;;42.53;18.27;;;-3.40;99.90;;;;;;5042421;28;20025;-73
2024/01/11 01:26:23;;;;;;;53.03;20.10;;;-3.40;99.90;;;;;;5059203;28;20017;-72
2024/01/11 01:28:48;;;;;;;47.40;17.92;;;-3.50;99.90;;;;;;5060689;28;20208;-73
2024/01/11 01:31:14;;;;;;;56.15;19.30;;;-3.50;99.90;;;;;;5058593;28;20032;-73
2024/01/11 01:33:43;;;;;;;44.75;19.55;;;-3.50;99.90;;;;;;5059560;28;20017;-73
2024/01/11 01:36:10;;;;;;;52.90;19.55;;;-3.50;99.90;;;;;;5060200;28;20017;-73
2024/01/11 01:38:36;;;;;;;52.35;19.85;;;-3.50;99.90;;;;;;5059416;28;20473;-73
2024/01/11 01:41:01;;;;;;;43.28;18.17;;;-3.60;99.90;;;;;;5059445;28;20090;-73
2024/01/11 01:43:27;;;;;;;42.20;17.67;;;-3.60;99.90;;;;;;5058292;28;20133;-73
2024/01/11 01:45:53;;;;;;;53.88;21.92;;;-3.50;99.90;;;;;;5059885;28;20029;-73
2024/01/11 01:48:20;;;;;;;45.08;19.80;;;-3.60;99.90;;;;;;5041822;28;20029;-73
2024/01/11 01:50:50;;;;;;;46.90;19.65;;;-2.90;99.90;;;;;;5059490;28;20017;-73
2024/01/11 01:53:21;;;;;;;46.38;19.23;;;-3.50;99.90;;;;;;5059511;28;20394;-73
2024/01/11 01:55:48;;;;;;;47.45;20.05;;;-3.40;99.90;;;;;;5059708;28;20155;-73
2024/01/11 01:58:15;;;;;;;40.20;17.00;;;-3.60;99.90;;;;;;5059282;28;20056;-73
2024/01/11 02:00:41;;;;;;;46.80;19.52;;;-3.60;99.90;;;;;;5060423;28;20340;-73
2024/01/11 02:03:09;;;;;;;42.08;15.70;;;-3.40;99.90;;;;;;5059821;28;20044;-73
2024/01/11 02:05:35;;;;;;;48.97;18.88;;;-3.60;99.90;;;;;;5059928;28;20393;-72
2024/01/11 02:08:03;;;;;;;40.05;15.93;;;-3.70;99.90;;;;;;5057481;28;20025;-73
2024/01/11 02:10:32;;;;;;;54.00;19.67;;;-3.60;99.90;;;;;;5059245;28;20114;-73
2024/01/11 02:12:58;;;;;;;;;;;-3.70;99.90;;;;;;5059889;28;20021;-73
2024/01/11 02:15:24;;;;;;;35.58;16.00;;;-3.80;99.90;;;;;;5059910;28;19967;-73
2024/01/11 02:17:49;;;;;;;46.33;19.40;;;-3.90;99.90;;;;;;5041761;28;20329;-73
2024/01/11 02:20:15;;;;;;;51.90;18.48;;;-3.90;99.90;;;;;;5059379;28;20029;-73
2024/01/11 02:22:46;;;;;;;48.10;18.52;;;-3.90;99.90;;;;;;5059424;28;20120;-73
2024/01/11 02:25:12;;;;;;;48.88;18.58;;;-2.30;99.90;;;;;;5060004;28;20021;-72
2024/01/11 02:27:50;;;;;;;46.55;19.63;;;-3.80;99.90;;;;;;5059577;28;20025;-73
2024/01/11 02:30:17;;;;;;;46.00;16.80;;;-3.70;99.90;;;;;;5059566;28;20308;-73
2024/01/11 02:32:48;;;;;;;46.40;18.60;;;-3.70;99.90;;;;;;5059417;28;20461;-73
2024/01/11 02:35:15;;;;;;;45.45;18.58;;;-3.70;99.90;;;;;;5059007;28;20036;-73
2024/01/11 02:37:40;;;;;;;49.47;20.30;;;-3.70;99.90;;;;;;5059618;28;20029;-73
2024/01/11 02:40:08;;;;;;;42.03;17.77;;;-3.70;99.90;;;;;;5059977;28;20036;-73
2024/01/11 02:42:35;;;;;;;50.78;18.63;;;-3.70;99.90;;;;;;5058316;28;20098;-73
2024/01/11 02:45:03;;;;;;;51.92;20.10;;;-3.80;99.90;;;;;;5059550;28;20300;-73
2024/01/11 02:47:28;;;;;;;48.35;18.40;;;-3.90;99.90;;;;;;5059116;28;20052;-73
2024/01/11 02:49:54;;;;;;;51.35;17.80;;;-3.90;99.90;;;;;;5059826;28;20017;-73
2024/01/11 02:52:19;;;;;;;59.20;20.95;;;-3.90;99.90;;;;;;5058128;28;20102;-73
2024/01/11 02:54:45;;;;;;;35.97;13.07;;;-3.90;99.90;;;;;;5057737;28;20056;-73
2024/01/11 02:57:11;;;;;;;41.13;17.48;;;-3.90;99.90;;;;;;5058269;28;20084;-73
2024/01/11 02:59:36;;;;;;;49.67;20.17;;;-3.90;99.90;;;;;;5058894;28;20029;-73
2024/01/11 03:02:02;;;;;;;53.08;22.52;;;-4.00;99.90;;;;;;5057619;28;20063;-72
2024/01/11 03:04:28;;;;;;;60.15;21.55;;;-3.90;99.90;;;;;;5039694;28;20021;-73
2024/01/11 03:06:53;;;;;;;45.97;18.35;;;-4.00;99.90;;;;;;5059204;28;20332;-73
2024/01/11 03:09:19;;;;;;;48.58;20.08;;;-3.80;99.90;;;;;;5060683;28;20185;-73
2024/01/11 03:11:45;;;;;;;49.40;19.27;;;-3.80;99.90;;;;;;5061162;28;20049;-73
2024/01/11 03:14:10;;;;;;;38.95;17.90;;;-3.80;99.90;;;;;;5060883;28;20033;-73
2024/01/11 03:16:37;;;;;;;51.63;20.77;;;-3.80;99.90;;;;;;5061002;28;20469;-73
2024/01/11 03:19:03;;;;;;;53.05;20.60;;;-3.80;99.90;;;;;;5060632;28;20320;-73
2024/01/11 03:21:28;;;;;;;53.65;20.17;;;-3.80;99.90;;;;;;5060623;28;20057;-73
2024/01/11 03:23:54;;;;;;;49.35;20.40;;;-3.70;99.90;;;;;;5062888;28;20021;-73
2024/01/11 03:26:20;;;;;;;43.47;17.58;;;-3.60;99.90;;;;;;5062132;28;20029;-73
2024/01/11 03:28:45;;;;;;;49.92;20.15;;;-3.60;99.90;;;;;;5044340;28;20071;-73
2024/01/11 03:31:11;;;;;;;44.30;16.77;;;-3.60;99.90;;;;;;5062200;28;20029;-73
2024/01/11 03:33:37;;;;;;;48.67;18.65;;;-3.60;99.90;;;;;;5060332;28;20078;-73
2024/01/11 03:36:10;;;;;;;48.40;21.65;;;-3.60;99.90;;;;;;5060924;28;20416;-73
2024/01/11 03:38:36;;;;;;;46.83;18.60;;;-3.60;99.90;;;;;;5062059;28;20017;-74
2024/01/11 03:41:06;;;;;;;47.33;20.63;;;-3.60;99.90;;;;;;5061017;28;20108;-73
2024/01/11 03:43:32;;;;;;;44.78;19.02;;;-3.60;99.90;;;;;;5061702;28;20062;-73
2024/01/11 03:45:58;;;;;;;45.10;17.58;;;-3.60;99.90;;;;;;5044756;28;20025;-73
2024/01/11 03:48:23;;;;;;;56.92;20.08;;;-3.70;99.90;;;;;;5061828;28;20104;-73
2024/01/11 03:50:49;;;;;;;56.30;21.58;;;-3.70;99.90;;;;;;5044343;28;20374;-73
2024/01/11 03:53:14;;;;;;;41.65;18.75;;;-3.70;99.90;;;;;;5062141;28;20075;-73
2024/01/11 03:55:40;;;;;;;53.53;21.02;;;-3.70;99.90;;;;;;5061942;28;20117;-73
2024/01/11 03:58:06;;;;;;;46.72;19.20;;;-3.70;99.90;;;;;;5061405;28;20032;-73
2024/01/11 04:00:33;;;;;;;27.52;12.40;;;-3.80;99.90;;;;;;5044258;28;20025;-73
2024/01/11 04:02:59;;;;;;;34.30;16.52;;;-3.80;99.90;;;;;;5061768;28;20037;-73
2024/01/11 04:05:24;;;;;;;44.35;18.02;;;-3.90;99.90;;;;;;5062258;28;20079;-73
2024/01/11 04:07:50;;;;;;;51.40;19.00;;;-3.90;99.90;;;;;;5061501;28;20075;-73
2024/01/11 04:10:18;;;;;;;40.50;15.00;;;-3.90;99.90;;;;;;5060625;28;20260;-73
2024/01/11 04:12:43;;;;;;;52.47;19.52;;;-3.90;99.90;;;;;;5060891;28;20217;-73
2024/01/11 04:15:12;;;;;;;48.35;15.85;;;-4.00;99.90;;;;;;5043483;28;20017;-72
2024/01/11 04:17:39;;;;;;;38.38;15.85;;;-3.90;99.90;;;;;;5060136;28;20180;-73
2024/01/11 04:20:05;;;;;;;54.60;21.58;;;-4.10;99.90;;;;;;5059559;28;20059;-73
2024/01/11 04:22:31;;;;;;;44.50;18.88;;;-4.10;99.90;;;;;;5061127;28;20045;-73
2024/01/11 04:24:57;;;;;;;47.17;18.63;;;-4.10;99.90;;;;;;5043514;28;20025;-73
2024/01/11 04:27:22;;;;;;;53.30;19.08;;;-4.00;99.90;;;;;;5061215;28;20224;-73
2024/01/11 04:29:48;;;;;;;49.22;19.00;;;-4.10;99.90;;;;;;5043830;28;20305;-74
2024/01/11 04:32:13;;;;;;;55.95;20.02;;;-3.90;99.90;;;;;;5044255;28;20028;-73
2024/01/11 04:34:39;;;;;;;45.75;19.20;;;-4.00;99.90;;;;;;5060618;28;20356;-73
2024/01/11 04:37:06;;;;;;;40.80;17.25;;;-3.90;99.90;;;;;;5061933;28;20021;-73
2024/01/11 04:39:31;;;;;;;46.13;18.73;;;-4.00;99.90;;;;;;5059902;28;20021;-73
2024/01/11 04:41:57;;;;;;;55.65;21.25;;;-4.00;99.90;;;;;;5061083;28;20045;-73
2024/01/11 04:44:23;;;;;;;47.45;20.35;;;-4.00;99.90;;;;;;5060917;28;20025;-74
2024/01/11 04:46:48;;;;;;;43.05;17.27;;;-4.10;99.90;;;;;;5059760;28;20036;-73
2024/01/11 04:49:14;;;;;;;52.80;20.75;;;-4.00;99.90;;;;;;5060846;28;20097;-73
2024/01/11 04:51:39;;;;;;;52.25;20.55;;;-3.80;99.90;;;;;;5059285;28;20036;-72
2024/01/11 04:54:05;;;;;;;53.25;20.60;;;-4.00;99.90;;;;;;5043063;28;20043;-73
2024/01/11 04:56:31;;;;;;;47.03;18.63;;;-4.10;99.90;;;;;;5060970;28;20017;-73
2024/01/11 04:58:56;;;;;;;41.65;18.25;;;-4.00;99.90;;;;;;5061581;28;20325;-74
2024/01/11 05:01:22;;;;;;;48.00;21.55;;;-4.00;99.90;;;;;;5060978;28;20021;-73
2024/01/11 05:03:48;;;;;;;46.05;16.90;;;-4.00;99.90;;;;;;5060688;28;20110;-73
2024/01/11 05:06:18;;;;;;;47.33;18.85;;;-4.00;99.90;;;;;;5061011;28;20047;-74
2024/01/11 05:08:49;;;;;;;48.00;18.48;;;-4.00;99.90;;;;;;5059666;28;20204;-74
2024/01/11 05:11:23;;;;;;;49.63;19.70;;;-4.00;99.90;;;;;;5059508;28;20024;-73
2024/01/11 05:13:50;;;;;;;51.53;19.73;;;-4.00;99.90;;;;;;5042207;28;20024;-73
2024/01/11 05:16:19;;;;;;;45.50;19.38;;;-3.90;99.90;;;;;;5042598;28;20064;-73
2024/01/11 05:18:44;;;;;;;53.08;24.42;;;-3.90;99.90;;;;;;5060043;28;20025;-73
2024/01/11 05:21:10;;;;;;;48.03;18.90;;;-3.90;99.90;;;;;;5061506;28;20112;-73
2024/01/11 05:23:36;;;;;;;41.13;16.58;;;-3.90;99.90;;;;;;5062578;28;20092;-73
2024/01/11 05:26:02;;;;;;;43.15;17.75;;;-3.80;99.90;;;;;;5060828;28;20508;-73
2024/01/11 05:28:27;;;;;;;47.35;18.58;;;-3.90;99.90;;;;;;5042813;28;20027;-73
2024/01/11 05:30:56;;;;;;;48.08;17.80;;;-3.30;99.90;;;;;;5060033;28;20025;-73
2024/01/11 05:33:22;;;;;;;43.50;17.58;;;-3.90;99.90;;;;;;5060120;28;20025;-72
2024/01/11 05:35:47;;;;;;;48.83;18.02;;;-3.90;99.90;;;;;;5059584;28;20028;-73
2024/01/11 05:38:13;;;;;;;43.25;18.98;;;-3.90;99.90;;;;;;5059820;28;20321;-74
2024/01/11 05:40:38;;;;;;;47.20;17.92;;;-4.00;99.90;;;;;;5059507;28;20029;-73
2024/01/11 05:43:04;;;;;;;52.97;19.55;;;-3.90;99.90;;;;;;5042102;28;20053;-73
2024/01/11 05:45:30;;;;;;;44.40;18.27;;;-3.90;99.90;;;;;;5042220;28;20039;-73
2024/01/11 05:47:55;;;;;;;47.30;18.90;;;-3.90;99.90;;;;;;5041800;28;20225;-73
2024/01/11 05:50:21;;;;;;;46.28;17.23;;;-3.80;99.90;;;;;;5057892;28;20428;-73
2024/01/11 05:52:46;;;;;;;46.72;18.15;;;-3.90;99.90;;;;;;5033622;28;20439;-73
2024/01/11 05:55:12;;;;;;;51.35;20.40;;;-3.90;99.90;;;;;;5049430;28;20067;-73
2024/01/11 05:57:38;;;;;;;43.92;18.50;;;-4.00;99.90;;;;;;5051049;28;20045;-73
2024/01/11 06:00:05;;;;;;;50.38;20.08;;;-3.90;99.90;;;;;;5031622;28;20032;-73
2024/01/11 06:02:31;;;;;;;44.75;18.63;;;-3.90;99.90;;;;;;5034300;28;20401;-73
2024/01/11 06:04:57;;;;;;;50.30;20.15;;;-3.90;99.90;;;;;;5037048;28;20025;-73
2024/01/11 06:07:23;;;;;;;50.30;18.98;;;-3.90;99.90;;;;;;5049116;28;20039;-73
2024/01/11 06:09:49;;;;;;;41.75;17.17;;;-3.90;99.90;;;;;;5049510;28;20025;-72
2024/01/11 06:12:15;;;;;;;50.47;20.10;;;-3.90;99.90;;;;;;5048828;28;20546;-73
2024/01/11 06:14:40;;;;;;;45.35;17.20;;;-3.90;99.90;;;;;;5047847;28;20021;-73
2024/01/11 06:17:06;;;;;;;45.28;19.08;;;-3.90;99.90;;;;;;5049168;28;20029;-73
2024/01/11 06:19:32;;;;;;;45.88;20.08;;;-4.00;99.90;;;;;;5049473;28;20017;-73
2024/01/11 06:21:58;;;;;;;39.83;16.75;;;-4.00;99.90;;;;;;5053815;28;20057;-73
2024/01/11 06:24:23;;;;;;;47.88;17.60;;;-4.00;99.90;;;;;;5048704;28;20546;-73
2024/01/11 06:26:49;;;;;;;47.47;18.90;;;-4.10;99.90;;;;;;5048508;28;20049;-74
2024/01/11 06:29:15;;;;;;;44.33;16.77;;;-4.10;99.90;;;;;;5048867;28;20506;-72
2024/01/11 06:31:41;;;;;;;47.25;20.02;;;-4.10;99.90;;;;;;5048150;28;20017;-73
2024/01/11 06:34:06;;;;;;;46.58;17.35;;;-4.20;99.90;;;;;;5046248;28;20116;-72
2024/01/11 06:36:32;;;;;;;37.30;14.85;;;-4.10;99.90;;;;;;5046148;28;20029;-73
2024/01/11 06:38:57;;;;;;;52.70;20.75;;;-4.10;99.90;;;;;;5047289;28;20437;-73
2024/01/11 06:41:24;;;;;;;49.30;18.38;;;-4.10;99.90;;;;;;5046205;28;20280;-73
2024/01/11 06:43:49;;;;;;;44.38;18.30;;;-4.10;99.90;;;;;;5049559;28;20044;-72
2024/01/11 06:46:20;;;;;;;49.15;18.88;;;-4.10;99.90;;;;;;5051391;28;20462;-72
2024/01/11 06:48:45;;;;;;;52.38;19.95;;;-4.10;99.90;;;;;;5031906;28;20025;-73
2024/01/11 06:51:20;;;;;;;42.00;17.52;;;-4.10;99.90;;;;;;5049686;28;20044;-73
2024/01/11 06:53:46;;;;;;;44.60;15.80;;;-4.10;99.90;;;;;;5050115;28;20021;-74
2024/01/11 06:56:20;;;;;;;21.17;10.27;;;-4.10;99.90;;;;;;5049930;28;20036;-73
2024/01/11 06:58:47;;;;;;;39.72;15.02;;;-4.20;99.90;;;;;;5051774;28;20025;-73
2024/01/11 07:01:13;;;;;;;38.65;18.88;;;-4.30;99.90;;;;;;5052039;28;20045;-73
2024/01/11 07:03:39;;;;;;;46.10;19.27;;;-4.30;99.90;;;;;;5053584;28;20071;-73
2024/01/11 07:06:05;;;;;;;37.47;14.43;;;-4.30;99.90;;;;;;5053916;28;20067;-72
2024/01/11 07:08:34;;;;;;;26.52;15.82;;;-4.20;99.90;;;;;;5053156;28;20421;-73
2024/01/11 07:11:02;;;;;;;51.78;18.92;;;-4.20;99.90;;;;;;5051332;28;20028;-73
2024/01/11 07:13:28;;;;;;;48.60;18.85;;;-4.20;99.90;;;;;;5058067;28;20028;-72
2024/01/11 07:15:57;;;;;;;37.83;16.55;;;-4.40;99.90;;;;;;5057107;28;20104;-72
2024/01/11 07:18:26;;;;;;;51.53;20.02;;;-4.30;99.90;;;;;;5024013;28;20374;-72
2024/01/11 07:20:58;;;;;;;23.00;9.95;;;-4.30;99.90;;;;;;5051514;28;20048;-72
2024/01/11 07:23:24;;;;;;;49.08;17.80;;;-4.30;99.90;;;;;;5051917;28;20041;-71
2024/01/11 07:25:49;;;;;;;50.28;19.92;;;-4.30;99.90;;;;;;5051499;28;20488;-71
2024/01/11 07:28:17;;;;;;;46.13;18.38;;;-4.30;99.90;;;;;;5051253;28;20375;-72
2024/01/11 07:30:42;;;;;;;51.92;17.75;;;-4.30;99.90;;;;;;5033963;28;20048;-72
2024/01/11 07:33:09;;;;;;;47.83;18.98;;;-4.40;99.90;;;;;;5051798;28;20060;-71
2024/01/11 07:35:34;;;;;;;41.42;18.75;;;-4.40;99.90;;;;;;5051920;28;20021;-72
2024/01/11 07:38:00;;;;;;;53.13;19.20;;;-4.30;99.90;;;;;;5051627;28;20033;-72
2024/01/11 07:40:26;;;;;;;50.72;18.08;;;-4.20;99.90;;;;;;5051697;28;20025;-72
2024/01/11 07:42:53;;;;;;;54.40;20.17;;;-4.20;99.90;;;;;;5051844;28;20033;-73
2024/01/11 07:45:19;;;;;;;54.20;20.48;;;-4.10;99.90;;;;;;5031852;28;20481;-73
2024/01/11 07:47:44;;;;;;;53.40;22.08;;;-4.10;99.90;;;;;;5049825;28;20101;-73
2024/01/11 07:50:13;;;;;;;48.95;19.00;;;-4.10;99.90;;;;;;5049851;28;20033;-72
2024/01/11 07:52:42;;;;;;;54.17;20.70;;;-4.00;99.90;;;;;;5049699;28;20100;-73
2024/01/11 07:55:10;;;;;;;48.30;20.42;;;-3.80;99.90;;;;;;5057261;28;20029;-76
2024/01/11 07:57:37;;;;;;;58.45;20.45;;;-3.90;99.90;;;;;;5063126;28;20128;-75
2024/01/11 08:00:07;;;;;;;49.88;19.25;;;-3.80;99.90;;;;;;5054167;28;20054;-72
2024/01/11 08:02:33;;;;;;;61.20;21.17;;;-3.80;99.90;;;;;;5078170;28;20484;-73
2024/01/11 08:05:02;;;;;;;42.35;17.35;;;-3.80;99.90;;;;;;5060744;28;20031;-73
2024/01/11 08:07:28;;;;;;;63.42;22.80;;;-3.70;99.90;;;;;;5057010;28;20029;-73
2024/01/11 08:09:55;;;;;;;59.63;22.50;;;-3.80;99.90;;;;;;5066752;28;20082;-74
2024/01/11 08:12:20;;;;;;;48.92;19.35;;;-3.90;99.90;;;;;;5052064;28;20025;-75
2024/01/11 08:14:46;;;;;;;47.72;19.40;;;-3.80;99.90;;;;;;5046130;28;20082;-72
2024/01/11 08:17:13;;;;;;;53.50;20.63;;;-3.80;99.90;;;;;;5051576;28;20022;-73
2024/01/11 08:19:40;;;;;;;52.83;21.38;;;-3.80;99.90;;;;;;5033142;28;20396;-73
2024/01/11 08:22:06;;;;;;;58.85;22.17;;;-3.70;99.90;;;;;;5050142;28;20041;-73
2024/01/11 08:24:32;;;;;;;48.90;20.23;;;-3.60;99.90;;;;;;5057526;28;20039;-73
2024/01/11 08:26:58;;;;;;;48.22;18.40;;;-3.60;99.90;;;;;;5050385;28;20025;-72
2024/01/11 08:29:23;;;;;;;55.42;21.20;;;-3.60;99.90;;;;;;5032077;28;20036;-72
2024/01/11 08:31:49;;;;;;;53.80;19.73;;;-2.80;99.90;;;;;;5036874;28;20021;-73
2024/01/11 08:34:15;;;;;;;26.75;12.13;;;-3.40;99.90;;;;;;5049429;28;20013;-72
2024/01/11 08:36:40;;;;;;;53.67;21.60;;;-3.50;99.90;;;;;;5047292;28;20033;-74
2024/01/11 08:39:07;;;;;;;43.78;14.93;;;-3.60;99.90;;;;;;5047664;28;20021;-72
2024/01/11 08:41:33;;;;;;;71.85;23.60;;;-3.60;99.90;;;;;;5046811;28;20021;-73
2024/01/11 08:43:59;;;;;;;50.58;18.27;;;-3.70;99.90;;;;;;5047412;28;20142;-72
2024/01/11 08:46:28;;;;;;;46.70;16.95;;;-3.80;99.90;;;;;;5049204;28;20166;-71
2024/01/11 08:48:55;;;;;;;53.38;19.88;;;-3.80;99.90;;;;;;5050400;28;20025;-73
2024/01/11 08:51:21;;;;;;;47.35;19.23;;;-3.40;99.90;;;;;;5047720;28;20029;-72
2024/01/11 08:53:47;;;;;;;55.40;20.60;;;-3.60;99.90;;;;;;5047625;28;20032;-73
2024/01/11 08:56:13;;;;;;;56.38;22.52;;;-3.40;99.90;;;;;;5048123;28;20124;-72
2024/01/11 08:58:40;;;;;;;57.85;20.13;;;-3.40;99.90;;;;;;5047890;28;20082;-73
2024/01/11 09:01:08;;;;;;;56.63;22.85;;;-3.40;99.90;;;;;;5048715;28;20024;-73
2024/01/11 09:03:34;;;;;;;54.17;20.55;;;-3.40;99.90;;;;;;5048840;28;20150;-72
2024/01/11 09:06:00;;;;;;;51.75;22.98;;;-3.30;99.90;;;;;;5048627;28;20398;-72
2024/01/11 09:08:26;;;;;;;57.30;22.73;;;-3.40;99.90;;;;;;5050252;28;20120;-73
2024/01/11 09:10:52;;;;;;;54.33;18.52;;;-3.20;99.90;;;;;;5050369;28;20100;-75
2024/01/11 09:13:19;;;;;;;49.25;20.73;;;-3.00;99.90;;;;;;5050966;28;20017;-72
2024/01/11 09:15:44;;;;;;;61.10;20.35;;;-3.10;99.90;;;;;;5051281;28;20024;-73
2024/01/11 09:18:10;;;;;;;44.80;18.17;;;-3.10;99.90;;;;;;5049889;28;20051;-74
2024/01/11 09:20:36;;;;;;;52.28;21.25;;;-3.10;99.90;;;;;;5050411;28;20040;-75
2024/01/11 09:23:03;;;;;;;49.22;20.92;;;-2.70;99.90;;;;;;5032379;28;20039;-74
2024/01/11 09:25:32;;;;;;;56.75;21.73;;;-3.10;99.90;;;;;;5049786;28;20059;-75
2024/01/11 09:27:59;;;;;;;44.65;16.83;;;-2.90;99.90;;;;;;5047215;28;20474;-74
2024/01/11 09:30:25;;;;;;;54.25;20.95;;;-2.80;99.90;;;;;;5050381;28;20833;-73
2024/01/11 09:32:51;;;;;;;46.65;20.38;;;-2.90;99.90;;;;;;5049825;28;20078;-72
2024/01/11 09:35:17;;;;;;;36.15;14.38;;;-2.90;99.90;;;;;;5031995;28;20128;-73
2024/01/11 09:37:44;;;;;;;49.80;21.27;;;-2.00;99.90;;;;;;5049663;28;20017;-71
2024/01/11 09:40:10;;;;;;;49.55;22.42;;;-2.80;99.90;;;;;;5049502;28;20100;-74
2024/01/11 09:42:39;;;;;;;51.90;18.98;;;-2.80;99.90;;;;;;5049090;28;20163;-72
2024/01/11 09:45:16;;;;;;;49.67;19.65;;;-2.40;99.90;;;;;;5049876;28;20429;-74
2024/01/11 09:47:45;;;;;;;44.38;21.02;;;-2.30;99.90;;;;;;5049679;28;20040;-72
2024/01/11 09:50:17;;;;;;;55.42;21.98;;;-2.20;99.90;;;;;;5049150;28;20369;-72
2024/01/11 09:52:47;;;;;;;53.70;20.33;;;-2.20;99.90;;;;;;5048774;28;20409;-72
2024/01/11 09:55:13;;;;;;;55.78;19.67;;;-2.20;99.90;;;;;;5048819;28;20025;-71
2024/01/11 09:57:44;;;;;;;53.83;20.40;;;-2.10;99.90;;;;;;5048725;28;20108;-73
2024/01/11 10:00:12;;;;;;;54.33;21.95;;;-1.90;99.90;;;;;;5048580;28;20119;-72
2024/01/11 10:02:39;;;;;;;42.97;15.10;;;-2.20;99.90;;;;;;5048928;28;20037;-73
2024/01/11 10:05:05;;;;;;;46.63;16.17;;;-2.30;99.90;;;;;;5048604;28;20033;-72
2024/01/11 10:07:33;;;;;;;36.17;12.70;;;-2.40;99.90;;;;;;5048945;28;20025;-71
2024/01/11 10:10:00;;;;;;;44.45;19.25;;;-2.50;99.90;;;;;;5048603;28;20025;-72
2024/01/11 10:12:27;;;;;;;52.47;21.25;;;-2.00;99.90;;;;;;5048297;28;20025;-72
2024/01/11 10:14:53;;;;;;;49.40;19.65;;;-2.30;99.90;;;;;;5048441;28;20032;-73
2024/01/11 10:17:19;;;;;;;57.10;20.95;;;-2.30;99.90;;;;;;5052546;28;20024;-73
2024/01/11 10:19:45;;;;;;;53.03;21.90;;;-2.20;99.90;;;;;;5052988;28;20062;-74
2024/01/11 10:22:12;;;;;;;54.22;21.92;;;-2.00;99.90;;;;;;5052382;28;20545;-72
2024/01/11 10:24:39;;;;;;;23.55;11.07;;;-1.60;99.90;;;;;;5052900;28;20033;-72
2024/01/11 10:27:08;;;;;;;32.65;11.63;;;-1.60;99.90;;;;;;5051113;28;20025;-72
2024/01/11 10:29:36;;;;;;;46.05;20.40;;;-2.10;99.90;;;;;;5052669;28;20048;-72
2024/01/11 10:32:03;;;;;;;16.58;7.90;;;-3.00;99.90;;;;;;5034517;28;20025;-72
2024/01/11 10:34:29;;;;;;;44.33;17.35;;;-2.90;99.90;;;;;;5052479;28;20507;-71
2024/01/11 10:36:54;;;;;;;46.83;19.88;;;-2.90;99.90;;;;;;5052756;28;20378;-73
2024/01/11 10:39:25;;;;;;;55.85;22.40;;;-3.10;99.90;;;;;;5052252;28;20560;-72
2024/01/11 10:42:09;;;;;;;45.85;18.42;;;-3.20;99.90;;;;;;5034069;28;20083;-72
2024/01/11 10:44:35;;;;;;;49.47;20.65;;;-2.90;99.90;;;;;;5034354;28;20399;-72
2024/01/11 10:47:05;;;;;;;52.83;20.83;;;-2.50;99.90;;;;;;5055060;28;20017;-73
2024/01/11 10:49:32;;;;;;;23.55;10.48;;;-2.60;99.90;;;;;;5054451;28;20284;-75
2024/01/11 10:52:05;;;;;;;40.58;18.13;;;-2.70;99.90;;;;;;5053835;28;20025;-76
2024/01/11 10:54:34;;;;;;;51.35;22.45;;;-2.70;99.90;;;;;;5052984;28;20512;-73
2024/01/11 10:57:00;;;;;;;36.72;13.77;;;-2.70;99.90;;;;;;5054896;28;20036;-78
2024/01/11 10:59:27;;;;;;;47.75;21.20;;;-2.60;99.90;;;;;;5036449;28;20033;-77
2024/01/11 11:01:58;;;;;;;55.75;20.77;;;-2.90;99.90;;;;;;5053498;28;20123;-75
2024/01/11 11:04:25;;;;;;;49.58;19.80;;;-2.90;99.90;;;;;;5035961;28;20044;-76
2024/01/11 11:06:57;;;;;;;60.22;22.02;;;-3.00;99.90;;;;;;5035009;28;20354;-73
2024/01/11 11:09:24;;;;;;;56.10;21.55;;;-3.10;99.90;;;;;;5052951;28;20070;-76
2024/01/11 11:11:51;;;;;;;54.45;21.45;;;-1.80;99.90;;;;;;5052479;28;20363;-76
2024/01/11 11:14:18;;;;;;;57.33;20.90;;;-2.70;99.90;;;;;;5052363;28;20024;-76
2024/01/11 11:16:45;;;;;;;55.72;22.50;;;-2.70;99.90;;;;;;5052702;28;20075;-72
2024/01/11 11:19:14;;;;;;;57.28;21.13;;;-2.30;99.90;;;;;;5051012;28;20545;-73
2024/01/11 11:21:47;;;;;;;55.22;23.67;;;-3.10;99.90;;;;;;5051083;28;20053;-73
2024/01/11 11:24:13;;;;;;;52.47;21.35;;;-3.10;99.90;;;;;;5050697;28;20323;-73
2024/01/11 11:26:39;;;;;;;52.47;21.50;;;-2.80;99.90;;;;;;5050840;28;20347;-73
2024/01/11 11:29:05;;;;;;;41.42;16.58;;;-1.60;99.90;;;;;;5050461;28;20025;-71
2024/01/11 11:31:53;;;;;;;58.97;22.77;;;-2.20;99.90;;;;;;5051567;28;20100;-72
2024/01/11 11:34:20;;;;;;;63.53;27.63;;;-2.10;99.90;;;;;;5051437;28;20390;-72
2024/01/11 11:36:54;;;;;;;50.88;21.27;;;-2.10;99.90;;;;;;5051752;28;20021;-73
2024/01/11 11:39:21;;;;;;;62.00;19.60;;;-2.00;99.90;;;;;;5051595;28;20067;-71
2024/01/11 11:41:49;;;;;;;55.20;22.88;;;-1.90;99.90;;;;;;5050771;28;20249;-72
2024/01/11 11:44:16;;;;;;;56.67;21.97;;;-1.70;99.90;;;;;;5051443;28;20029;-71
2024/01/11 11:46:43;;;;;;;46.38;20.15;;;-1.60;99.90;;;;;;5052454;28;20024;-71
2024/01/11 11:49:10;;;;;;;47.03;22.15;;;-1.30;99.90;;;;;;5051465;28;20440;-71
2024/01/11 11:51:40;;;;;;;59.88;24.67;;;-0.50;99.90;;;;;;5051954;28;20251;-71
2024/01/11 11:54:09;;;;;;;52.90;20.98;;;-0.20;99.90;;;;;;5049938;28;20025;-71
2024/01/11 11:56:35;;;;;;;;;;;0.00;99.90;;;;;;5050814;28;20068;-70
2024/01/11 11:59:02;;;;;;;59.40;23.42;;;-0.50;99.90;;;;;;5052219;28;19966;-71
2024/01/11 12:01:28;;;;;;;55.45;22.15;;;-0.20;99.90;;;;;;5044830;28;20021;-72
2024/01/11 12:03:54;;;;;;;51.80;21.05;;;-0.10;99.90;;;;;;5049266;28;20036;-73
2024/01/11 12:06:24;;;;;;;56.72;21.45;;;0.00;99.90;;;;;;5051669;28;20118;-71
2024/01/11 12:08:53;;;;;;;56.95;21.35;;;-0.40;99.90;;;;;;5051452;28;20334;-70
2024/01/11 12:11:20;;;;;;;53.47;20.85;;;-0.50;99.90;;;;;;5034129;28;20021;-71
2024/01/11 12:13:50;;;;;;;55.20;22.40;;;-0.80;99.90;;;;;;5034354;28;20044;-72
2024/01/11 12:16:15;;;;;;;72.40;23.92;;;-0.80;99.90;;;;;;5051301;28;20482;-72
2024/01/11 12:18:42;;;;;;;54.70;23.40;;;-1.00;99.90;;;;;;5051021;28;20079;-72
2024/01/11 12:21:08;;;;;;;55.38;23.10;;;-0.60;99.90;;;;;;5032496;28;20527;-71
2024/01/11 12:23:35;;;;;;;52.53;21.00;;;-0.50;99.90;;;;;;5051313;28;20128;-72
2024/01/11 12:26:07;;;;;;;57.22;21.00;;;-0.10;99.90;;;;;;5033415;28;20489;-71